Nearby METAR Reports

 

KC09 - Morris-Washburn, Illinois, USA
Distance from station: NW 9mi, 14km
Updated: Wed, 22-Nov-2017 7:35pm CST
Mostly cloudy
Mostly cloudy
 Wind from calm
Wind: Calm
Temperature: 30°F , -1°C
Dew Point: 21°F , -6°C
Humidity: 69%
Barometer: 30.25 inHg , 1024.4 hPa
Clouds: Mostly cloudy
Visibility: 10 miles , 16 km
Cloud details: Mostly cloudy 12000 ft
2017/11/23 01:35 KC09 230135Z AUTO 00000KT 10SM BKN120 M01/M06 A3025 RMK AO2 T10101059
KJOT - Joliet, Illinois, USA
Distance from station: NNE 13mi, 22km
Updated: Wed, 22-Nov-2017 7:35pm CST
Partly cloudy
Partly cloudy
 Wind from calm
Wind: Calm
Temperature: 32°F , 0°C
Dew Point: 21°F , -6°C
Humidity: 64%
Barometer: 30.24 inHg , 1024 hPa
Clouds: Partly cloudy
Visibility: 10 miles , 16 km
Cloud details: Partly cloudy 12000 ft
2017/11/23 01:35 KJOT 230135Z AUTO 00000KT 10SM SCT120 00/M06 A3024 RMK AO2 T10011061
 
KLOT - Romeoville/Chi, Illinois, USA
Distance from station: NNE 21mi, 33km
Updated: Wed, 22-Nov-2017 7:35pm CST
Mostly cloudy
Mostly cloudy
 Wind from S
Wind: S 3 mph , 6 km/h
Temperature: 30°F , -1°C
Dew Point: 21°F , -6°C
Humidity: 69%
Barometer: 30.23 inHg , 1023.7 hPa
Clouds: Mostly cloudy
Visibility: 10 miles , 16 km
Cloud details: Mostly cloudy 11000 ft
2017/11/23 01:35 KLOT 230135Z AUTO 17003KT 10SM BKN110 M01/M06 A3023 RMK AO2 T10121057
KIKK - Kankakee, Illinois, USA
Distance from station: SE 30mi, 48km
Updated: Wed, 22-Nov-2017 7:35pm CST
Clear
Clear
 Wind from calm
Wind: Calm
Temperature: 28°F , -2°C
Dew Point: 21°F , -6°C
Humidity: 74%
Barometer: 30.26 inHg , 1024.7 hPa
Clouds: Clear
Visibility: 10 miles , 16 km
2017/11/23 01:35 KIKK 230135Z AUTO 00000KT 10SM CLR M02/M06 A3026 RMK AO2 T10251059
 
KARR - Chicago/Aurora, Illinois, USA
Distance from station: NNW 31mi, 50km
Updated: Wed, 22-Nov-2017 6:52pm CST
Clear
Clear
 Wind from SSE
Wind: SSE 3 mph , 6 km/h
Temperature: 30°F , -1°C
Dew Point: 21°F , -6°C
Humidity: 69%
Barometer: 30.24 inHg , 1024 hPa
Clouds: Clear
Visibility: 9 miles , 14 km
2017/11/23 00:52 KARR 230052Z 16003KT 9SM CLR M01/M06 A3024 RMK AO2 SLP250 T10111061
KPNT - Pontiac, Illinois, USA
Distance from station: SSW 34mi, 54km
Updated: Wed, 22-Nov-2017 7:35pm CST
Clear
Clear
 Wind from S
Wind: S 3 mph , 6 km/h
Temperature: 30°F , -1°C
Dew Point: 25°F , -4°C
Humidity: 80%
Barometer: 30.25 inHg , 1024.4 hPa
Clouds: Clear
Visibility: 10 miles , 16 km
2017/11/23 01:35 KPNT 230135Z AUTO 19003KT 10SM CLR M01/M04 A3025 RMK AO2 T10111045
 
KDPA - Chicago/Dupage, Illinois, USA
Distance from station: N 40mi, 64km
Updated: Wed, 22-Nov-2017 6:52pm CST
Few Clouds
Few Clouds
 Wind from S
Wind: S 3 mph , 6 km/h
Temperature: 30°F , -1°C
Dew Point: 19°F , -7°C
Humidity: 64%
Barometer: 30.23 inHg , 1023.7 hPa
Clouds: Few Clouds
Visibility: 10 miles , 16 km
Cloud details: Few Clouds 12000 ft
2017/11/23 00:52 KDPA 230052Z 19003KT 10SM FEW120 M01/M07 A3023 RMK AO2 SLP246 T10111072
KIGQ - Chicago/Lansing, Illinois, USA
Distance from station: ENE 42mi, 67km
Updated: Wed, 22-Nov-2017 7:35pm CST
Clear
Clear
 Wind from SSW
Wind: SSW 3 mph , 6 km/h
Temperature: 27°F , -3°C
Dew Point: 23°F , -5°C
Humidity: 86%
Barometer: 30.25 inHg , 1024.4 hPa
Clouds: Clear
Visibility: 10 miles , 16 km
2017/11/23 01:35 KIGQ 230135Z AUTO 20003KT 10SM CLR M03/M05 A3025 RMK AO2 T10281051
 
KMDW - Chicago, Illinois, USA
Distance from station: NE 42mi, 67km
Updated: Wed, 22-Nov-2017 6:53pm CST
Overcast
Overcast
 Wind from WSW
Wind: WSW 7 mph , 11 km/h
Temperature: 32°F , 0°C
Wind Chill: 25°F , -4°C
Dew Point: 18°F , -8°C
Humidity: 55%
Barometer: 30.25 inHg , 1024.4 hPa
Clouds: Overcast
Visibility: 10 miles , 16 km
Cloud details: Partly cloudy 15000 ft
Overcast 18000 ft
2017/11/23 00:53 KMDW 230053Z 25006KT 10SM SCT150 OVC180 00/M08 A3025 RMK AO2 SLP258 T00001078
KVYS - Peru, Illinois, USA
Distance from station: W 44mi, 71km
Updated: Wed, 22-Nov-2017 7:35pm CST
Partly cloudy
Partly cloudy
 Wind from calm
Wind: Calm
Temperature: 30°F , -1°C
Dew Point: 19°F , -7°C
Humidity: 64%
Barometer: 30.24 inHg , 1024 hPa
Clouds: Partly cloudy
Visibility: 10 miles , 16 km
Cloud details: Partly cloudy 12000 ft
2017/11/23 01:35 KVYS 230135Z AUTO 00000KT 10SM SCT120 M01/M07 A3024 RMK AO2 T10101066
 
KDKB - De Kalb, Illinois, USA
Distance from station: NNW 46mi, 74km
Updated: Wed, 22-Nov-2017 7:35pm CST
Overcast
Overcast
 Wind from S
Wind: S 6 mph , 9 km/h
Temperature: 30°F , -1°C
Wind Chill: 24°F , -4°C
Dew Point: 21°F , -6°C
Humidity: 69%
Barometer: 30.21 inHg , 1023 hPa
Clouds: Overcast
Visibility: 10 miles , 16 km
Cloud details: Overcast 11000 ft
2017/11/23 01:35 KDKB 230135Z AUTO 17005KT 10SM OVC110 M01/M06 A3021 RMK AO2 T10141056
KORD - Chicago O'hare, Illinois, USA
Distance from station: NNE 48mi, 78km
Updated: Wed, 22-Nov-2017 6:51pm CST
Overcast
Overcast
 Wind from SW
Wind: SW 7 mph , 11 km/h
Temperature: 32°F , 0°C
Wind Chill: 25°F , -4°C
Dew Point: 18°F , -8°C
Humidity: 55%
Barometer: 30.24 inHg , 1024 hPa
Clouds: Overcast
Visibility: 10 miles , 16 km
Cloud details: Few Clouds 15000 ft
Overcast 18000 ft
2017/11/23 00:51 KORD 230051Z 22006KT 10SM FEW150 OVC180 00/M08 A3024 RMK AO2 SLP248 T00001083
 
KGYY - Gary Regional, Indiana, USA
Distance from station: ENE 49mi, 80km
Updated: Wed, 22-Nov-2017 6:45pm CST
Mostly cloudy
Mostly cloudy
 Wind from WSW
Wind: WSW 5 mph , 7 km/h
Temperature: 32°F , 0°C
Wind Chill: 27°F , -3°C
Dew Point: 16°F , -9°C
Humidity: 51%
Barometer: 30.27 inHg , 1025.1 hPa
Clouds: Mostly cloudy
Visibility: 10 miles , 16 km
Cloud details: Mostly cloudy 25000 ft
2017/11/23 00:45 KGYY 230045Z 24004KT 10SM BKN250 M00/M09 A3027